RJSK

Akita Airport

Airport
ICAO code
RJSK
IATA Code
AXT
Summary
ICAO Region
APAC
ICAO Territory
Location

Akita, Akita Prefecture

Serving
Akita
Elevation
305 ft
Coordinates
39° 36' 55" N , 140° 13' 5" E
KCC
Metar
Observation
RJSK 301000Z 29005KT 9999 -SHSN FEW020 SCT030 BKN045 M04/M05 Q1011
Station
Akita Airport
Date/Time
2023-01-30 11:00:00
Wind direction
290°
Wind speed
05 kts
Lowest cloud amount
few clouds
Temperature
-4°C
Dew point
-5°C
Humidity
92%
QNH
1011 hPa
Weather condition
light showers snow

Akita Airport is an airport located 14 km southeast of Akita, a city in the Akita Prefecture of Japan.

Climatology

Humid subtropical climate (Köppen climate classification Cfa).

Runways

Designator Length Width Surface Rops
10/28 2499 61 ASP Yes/Yes

Airport map

Aerial View

Airport accidents

SKYbrary Partners:

Safety knowledge contributed by: